Terminal Aerodrome Forecast
Issued by NWS

Home | Current Version | Previous Version | Text Only | Print | Product List | Glossary On
Versions: 1 2 3 4 5 6 7 8 9 10 11 12 13 14
000
FTUS44 KEPZ 100500
TAFLRU
TAF
KLRU 100530Z 1006/1106 09006KT P6SM FEW080 BKN250
     FM102000 13006KT P6SM VCTS BKN080CB BKN250
     FM110300 12008KT P6SM FEW080 BKN250=

USA.gov is the U.S. government's official web portal to all federal, state and local government web resources and services.